createdAt,value
2022-08-30T00:01:24.442Z,17.54
2022-08-30T00:04:26.378Z,17.70
2022-08-30T00:07:27.974Z,17.75
2022-08-30T00:10:30.048Z,17.77
2022-08-30T00:13:32.782Z,17.66
2022-08-30T00:16:34.425Z,17.71
2022-08-30T00:19:35.937Z,17.37
2022-08-30T00:22:37.503Z,17.04
2022-08-30T00:25:39.830Z,17.33
2022-08-30T00:28:41.309Z,17.54
2022-08-30T00:31:42.742Z,17.59
2022-08-30T00:34:44.218Z,17.63
2022-08-30T00:37:46.088Z,17.63
2022-08-30T00:40:47.644Z,17.03
2022-08-30T00:43:49.126Z,16.77
2022-08-30T00:46:50.603Z,17.04
2022-08-30T00:49:56.168Z,17.34
2022-08-30T00:53:00.464Z,17.14
2022-08-30T00:56:02.578Z,17.37
2022-08-30T00:59:06.472Z,17.45
2022-08-30T01:02:08.104Z,17.06
2022-08-30T01:05:12.499Z,17.04
2022-08-30T01:08:20.326Z,17.13
2022-08-30T01:11:24.370Z,17.13
2022-08-30T01:14:26.278Z,16.37
2022-08-30T01:17:29.086Z,16.32
2022-08-30T01:20:43.280Z,16.90
2022-08-30T01:23:47.479Z,17.08
2022-08-30T01:26:48.965Z,17.19
2022-08-30T01:29:51.468Z,17.11
2022-08-30T01:32:59.094Z,17.22
2022-08-30T01:36:04.015Z,17.24
2022-08-30T01:39:06.065Z,17.05
2022-08-30T01:42:07.637Z,16.68
2022-08-30T01:45:09.863Z,16.86
2022-08-30T01:48:12.865Z,17.00
2022-08-30T01:51:15.040Z,16.88
2022-08-30T01:54:16.600Z,16.66
2022-08-30T01:57:21.078Z,16.89
2022-08-30T02:00:22.578Z,16.92
2022-08-30T02:03:24.684Z,16.79
2022-08-30T02:06:26.633Z,16.83
2022-08-30T02:09:28.311Z,16.88
2022-08-30T02:12:30.445Z,16.76
2022-08-30T02:15:41.488Z,16.76
2022-08-30T02:18:44.083Z,16.88
2022-08-30T02:21:45.541Z,16.84
2022-08-30T02:24:46.998Z,16.29
2022-08-30T02:27:48.651Z,16.57
2022-08-30T02:30:50.162Z,16.07
2022-08-30T02:33:54.293Z,16.48
2022-08-30T02:36:56.355Z,16.65
2022-08-30T02:39:57.879Z,16.79
2022-08-30T02:42:59.402Z,16.88
2022-08-30T02:46:00.951Z,16.74
2022-08-30T02:49:29.880Z,16.88
2022-08-30T02:52:27.953Z,16.70
2022-08-30T02:55:29.826Z,15.95
2022-08-30T02:58:31.765Z,16.24
2022-08-30T03:01:36.124Z,16.46
2022-08-30T03:04:39.217Z,16.59
2022-08-30T03:07:41.722Z,16.63
2022-08-30T03:10:43.586Z,16.75
2022-08-30T03:13:45.087Z,16.48
2022-08-30T03:16:46.714Z,15.89
2022-08-30T03:19:48.199Z,16.26
2022-08-30T03:22:50.465Z,16.04
2022-08-30T03:25:53.331Z,15.95
2022-08-30T03:28:54.790Z,16.06
2022-08-30T03:31:59.629Z,16.29
2022-08-30T03:35:01.289Z,16.23
2022-08-30T03:38:02.919Z,16.46
2022-08-30T03:41:05.856Z,16.53
2022-08-30T03:44:09.132Z,16.46
2022-08-30T03:47:10.678Z,16.53
2022-08-30T03:50:13.979Z,16.52
2022-08-30T03:53:15.491Z,16.55
2022-08-30T03:56:18.608Z,16.20
2022-08-30T03:59:20.053Z,16.30
2022-08-30T04:02:21.614Z,16.23
2022-08-30T04:05:23.173Z,16.35
2022-08-30T04:08:25.465Z,16.39
2022-08-30T04:11:27.173Z,16.32
2022-08-30T04:14:28.658Z,15.95
2022-08-30T04:17:30.170Z,15.54
2022-08-30T04:20:31.819Z,15.93
2022-08-30T04:23:33.468Z,16.08
2022-08-30T04:26:35.988Z,15.11
2022-08-30T04:29:37.476Z,15.67
2022-08-30T04:32:39.365Z,16.08
2022-08-30T04:35:47.191Z,16.06
2022-08-30T04:38:48.821Z,15.98
2022-08-30T04:41:50.414Z,15.74
2022-08-30T04:44:51.954Z,15.23
2022-08-30T04:47:53.500Z,15.01
2022-08-30T04:50:57.949Z,15.25
2022-08-30T04:53:59.513Z,15.15
2022-08-30T04:57:01.137Z,14.73
2022-08-30T05:00:05.249Z,14.99
2022-08-30T05:03:06.710Z,15.60
2022-08-30T05:06:08.150Z,15.93
2022-08-30T05:09:09.719Z,15.94
2022-08-30T05:12:11.208Z,15.58
2022-08-30T05:15:15.087Z,15.15
2022-08-30T05:18:16.574Z,14.59
2022-08-30T05:21:25.515Z,14.78
2022-08-30T05:24:27.293Z,15.17
2022-08-30T05:27:28.861Z,14.91
2022-08-30T05:30:33.209Z,14.47
2022-08-30T05:33:36.282Z,14.44
2022-08-30T05:36:40.756Z,14.58
2022-08-30T05:39:50.705Z,14.69
2022-08-30T05:42:53.286Z,15.22
2022-08-30T05:46:06.626Z,15.17
2022-08-30T05:49:08.161Z,15.04
2022-08-30T05:52:09.717Z,15.08
2022-08-30T05:55:12.990Z,15.20
2022-08-30T05:58:16.634Z,15.30
2022-08-30T06:01:20.291Z,15.15
2022-08-30T06:04:22.102Z,14.99
2022-08-30T06:07:23.904Z,14.99
2022-08-30T06:10:25.365Z,14.92
2022-08-30T06:13:26.876Z,14.94
2022-08-30T06:16:29.116Z,15.15
2022-08-30T06:19:30.619Z,15.31
2022-08-30T06:22:32.061Z,15.48
2022-08-30T06:25:41.243Z,15.70
2022-08-30T06:28:43.573Z,15.95
2022-08-30T06:31:45.730Z,16.09
2022-08-30T06:34:48.218Z,16.39
2022-08-30T06:37:49.669Z,16.58
2022-08-30T06:40:51.198Z,16.69
2022-08-30T06:43:53.682Z,16.86
2022-08-30T06:46:55.376Z,16.97
2022-08-30T06:49:57.549Z,17.05
2022-08-30T06:53:05.598Z,17.11
2022-08-30T06:56:09.974Z,17.09
2022-08-30T06:59:13.591Z,17.24
2022-08-30T07:02:15.141Z,17.28
2022-08-30T07:05:18.989Z,17.47
2022-08-30T07:08:21.089Z,17.62
2022-08-30T07:11:31.547Z,17.70
2022-08-30T07:14:32.992Z,17.86
2022-08-30T07:17:54.259Z,17.98
2022-08-30T07:20:56.345Z,18.14
2022-08-30T07:23:59.164Z,18.33
2022-08-30T07:27:00.642Z,18.58
2022-08-30T07:30:03.322Z,18.65
2022-08-30T07:33:06.584Z,18.78
2022-08-30T07:36:08.916Z,18.90
2022-08-30T07:39:10.766Z,19.16
2022-08-30T07:42:12.287Z,19.16
2022-08-30T07:45:13.947Z,19.26
2022-08-30T07:48:15.883Z,19.21
2022-08-30T07:51:22.191Z,19.24
2022-08-30T07:54:24.205Z,19.32
2022-08-30T07:57:26.277Z,19.45
2022-08-30T08:00:27.983Z,19.57
2022-08-30T08:03:29.903Z,19.63
2022-08-30T08:06:35.116Z,19.70
2022-08-30T08:09:39.995Z,19.82
2022-08-30T08:12:41.760Z,19.94
2022-08-30T08:15:43.247Z,20.17
2022-08-30T08:18:44.796Z,20.24
2022-08-30T08:21:46.311Z,20.29
2022-08-30T08:24:48.942Z,20.47
2022-08-30T08:27:51.876Z,20.57
2022-08-30T08:30:53.409Z,20.66
2022-08-30T08:33:56.497Z,20.63
2022-08-30T08:36:57.963Z,20.76
2022-08-30T08:39:59.683Z,21.02
2022-08-30T08:43:17.004Z,21.22
2022-08-30T08:46:24.815Z,21.35
2022-08-30T08:49:26.414Z,21.37
2022-08-30T08:52:57.610Z,21.58
2022-08-30T08:55:59.209Z,21.89
2022-08-30T08:59:00.731Z,21.89
2022-08-30T09:02:19.593Z,21.96
2022-08-30T09:05:23.518Z,22.09
2022-08-30T09:08:25.344Z,22.15
2022-08-30T09:11:30.010Z,22.44
2022-08-30T09:14:38.825Z,22.56
2022-08-30T09:17:51.133Z,22.61
2022-08-30T09:20:54.590Z,22.76
2022-08-30T09:24:04.520Z,22.85
2022-08-30T09:27:16.881Z,22.91
2022-08-30T09:30:31.279Z,23.05
2022-08-30T09:33:36.701Z,23.25
2022-08-30T09:36:43.706Z,23.33
2022-08-30T09:39:45.698Z,23.24
2022-08-30T09:43:03.627Z,23.38
2022-08-30T09:46:11.013Z,23.73
2022-08-30T09:49:35.027Z,23.50
2022-08-30T09:52:55.611Z,24.03
2022-08-30T09:56:07.776Z,24.34
2022-08-30T09:59:41.779Z,24.14
2022-08-30T10:02:56.605Z,24.44
2022-08-30T10:06:05.909Z,24.57
2022-08-30T10:09:32.518Z,24.43
2022-08-30T10:12:44.416Z,24.65
2022-08-30T10:15:50.300Z,24.67
2022-08-30T10:19:04.202Z,24.81
2022-08-30T10:22:14.860Z,25.13
2022-08-30T10:25:25.042Z,25.13
2022-08-30T10:28:34.959Z,25.02
2022-08-30T10:31:46.121Z,25.18
2022-08-30T10:34:56.780Z,25.44
2022-08-30T10:38:10.182Z,25.51
2022-08-30T10:41:28.161Z,25.76
2022-08-30T10:44:34.155Z,25.63
2022-08-30T10:47:53.563Z,25.30
2022-08-30T10:51:01.055Z,25.52
2022-08-30T10:54:18.566Z,25.69
2022-08-30T10:57:20.938Z,25.57
2022-08-30T11:00:36.079Z,25.95
2022-08-30T11:03:51.431Z,26.37
2022-08-30T11:06:59.239Z,26.10
2022-08-30T11:10:10.444Z,26.20
2022-08-30T11:13:15.982Z,25.99
2022-08-30T11:16:19.890Z,26.15
2022-08-30T11:19:32.152Z,25.98
2022-08-30T11:22:39.271Z,26.11
2022-08-30T11:25:57.697Z,26.32
2022-08-30T11:29:02.533Z,26.50
2022-08-30T11:32:13.141Z,26.31
2022-08-30T11:35:55.354Z,26.57
2022-08-30T11:39:00.417Z,26.42
2022-08-30T11:42:25.038Z,26.41
2022-08-30T11:45:35.982Z,26.49
2022-08-30T11:48:53.618Z,26.75
2022-08-30T11:52:26.957Z,27.09
2022-08-30T11:55:38.761Z,27.42
2022-08-30T11:58:50.889Z,27.69
2022-08-30T12:01:53.397Z,27.67
2022-08-30T12:04:56.154Z,27.51
2022-08-30T12:08:08.751Z,27.35
2022-08-30T12:11:10.362Z,27.07
2022-08-30T12:14:33.889Z,26.93
2022-08-30T12:18:03.289Z,27.05
2022-08-30T12:21:28.163Z,27.36
2022-08-30T12:24:36.628Z,27.53
2022-08-30T12:27:38.358Z,27.36
2022-08-30T12:30:40.827Z,27.07
2022-08-30T12:34:03.239Z,27.09
2022-08-30T12:37:20.638Z,27.05
2022-08-30T12:40:25.463Z,27.24
2022-08-30T12:43:38.825Z,27.02
2022-08-30T12:46:45.497Z,27.09
2022-08-30T12:49:48.799Z,27.05
2022-08-30T12:53:04.270Z,27.06
2022-08-30T12:56:14.866Z,27.03
2022-08-30T12:59:39.363Z,26.75
2022-08-30T13:02:43.843Z,26.76
2022-08-30T13:05:48.005Z,26.79
2022-08-30T13:08:51.821Z,26.85
2022-08-30T13:11:54.066Z,26.75
2022-08-30T13:15:16.886Z,26.68
2022-08-30T13:18:29.956Z,26.58
2022-08-30T13:21:34.133Z,26.54
2022-08-30T13:24:35.589Z,26.55
2022-08-30T13:27:39.840Z,26.57
2022-08-30T13:30:41.551Z,26.68
2022-08-30T13:33:46.669Z,26.88
2022-08-30T13:36:56.913Z,26.93
2022-08-30T13:40:03.902Z,26.90
2022-08-30T13:43:06.138Z,27.02
2022-08-30T13:46:09.264Z,27.18
2022-08-30T13:49:50.690Z,27.18
2022-08-30T13:52:52.565Z,27.03
2022-08-30T13:55:54.091Z,27.08
2022-08-30T13:58:55.609Z,27.15
2022-08-30T14:02:13.371Z,27.09
2022-08-30T14:05:37.658Z,27.13
2022-08-30T14:08:47.853Z,27.00
2022-08-30T14:11:50.954Z,27.15
2022-08-30T14:14:55.309Z,27.06
2022-08-30T14:18:00.402Z,26.99
2022-08-30T14:21:02.163Z,26.90
2022-08-30T14:24:06.323Z,27.04
2022-08-30T14:27:07.866Z,27.03
2022-08-30T14:30:10.026Z,27.00
2022-08-30T14:33:12.134Z,26.92
2022-08-30T14:36:16.039Z,26.72
2022-08-30T14:39:19.703Z,26.92
2022-08-30T14:42:21.434Z,27.08
2022-08-30T14:45:23.009Z,27.30
2022-08-30T14:48:24.868Z,27.49
2022-08-30T14:51:29.689Z,27.65
2022-08-30T14:54:32.019Z,27.62
2022-08-30T14:57:35.126Z,27.53
2022-08-30T15:00:39.659Z,27.55
2022-08-30T15:03:42.446Z,27.40
2022-08-30T15:06:47.659Z,27.38
2022-08-30T15:09:49.280Z,27.55
2022-08-30T15:12:53.688Z,27.45
2022-08-30T15:15:55.459Z,27.16
2022-08-30T15:18:58.204Z,26.96
2022-08-30T15:22:04.732Z,27.02
2022-08-30T15:25:07.331Z,26.87
2022-08-30T15:28:10.946Z,26.84
2022-08-30T15:31:13.057Z,26.84
2022-08-30T15:34:18.053Z,26.96
2022-08-30T15:37:22.799Z,27.10
2022-08-30T15:40:24.517Z,27.23
2022-08-30T15:43:28.049Z,27.24
2022-08-30T15:46:37.475Z,27.46
2022-08-30T15:49:38.971Z,27.51
2022-08-30T15:52:40.592Z,27.20
2022-08-30T15:55:42.339Z,27.32
2022-08-30T15:58:44.559Z,27.30
2022-08-30T16:01:47.628Z,27.23
2022-08-30T16:04:49.555Z,27.19
2022-08-30T16:07:54.328Z,27.14
2022-08-30T16:10:56.027Z,27.04
2022-08-30T16:13:58.838Z,26.92
2022-08-30T16:17:00.694Z,26.70
2022-08-30T16:20:02.461Z,26.56
2022-08-30T16:23:03.940Z,26.45
2022-08-30T16:26:06.538Z,26.25
2022-08-30T16:29:10.403Z,26.17
2022-08-30T16:32:12.290Z,26.06
2022-08-30T16:35:13.746Z,25.99
2022-08-30T16:38:15.209Z,25.96
2022-08-30T16:41:21.390Z,25.93
2022-08-30T16:44:23.568Z,25.81
2022-08-30T16:47:31.373Z,25.72
2022-08-30T16:50:37.611Z,25.53
2022-08-30T16:53:40.258Z,25.45
2022-08-30T16:56:41.984Z,25.46
2022-08-30T16:59:44.486Z,25.34
2022-08-30T17:02:53.532Z,25.24
2022-08-30T17:05:57.293Z,25.19
2022-08-30T17:08:58.903Z,25.11
2022-08-30T17:12:00.378Z,25.01
2022-08-30T17:15:06.176Z,24.88
2022-08-30T17:18:07.905Z,24.80
2022-08-30T17:21:09.685Z,24.73
2022-08-30T17:24:11.269Z,24.66
2022-08-30T17:27:12.775Z,24.63
2022-08-30T17:30:14.374Z,24.58
2022-08-30T17:33:15.846Z,24.53
2022-08-30T17:36:19.381Z,24.53
2022-08-30T17:39:23.487Z,24.45
2022-08-30T17:42:25.001Z,24.36
2022-08-30T17:45:31.328Z,24.19
2022-08-30T17:48:35.866Z,24.16
2022-08-30T17:51:40.702Z,24.08
2022-08-30T17:54:43.096Z,23.92
2022-08-30T17:57:45.020Z,23.72
2022-08-30T18:00:46.745Z,23.77
2022-08-30T18:03:57.123Z,23.67
2022-08-30T18:07:03.787Z,23.47
2022-08-30T18:10:05.940Z,23.48
2022-08-30T18:13:07.817Z,23.39
2022-08-30T18:16:10.480Z,23.26
2022-08-30T18:19:13.829Z,23.26
2022-08-30T18:22:16.492Z,23.31
2022-08-30T18:25:19.169Z,23.26
2022-08-30T18:28:20.679Z,23.22
2022-08-30T18:31:22.341Z,23.15
2022-08-30T18:34:23.827Z,23.03
2022-08-30T18:37:25.300Z,22.98
2022-08-30T18:40:26.778Z,22.93
2022-08-30T18:43:30.794Z,22.78
2022-08-30T18:46:32.686Z,22.71
2022-08-30T18:49:35.738Z,22.75
2022-08-30T18:52:37.456Z,22.68
2022-08-30T18:55:42.153Z,22.63
2022-08-30T18:58:44.972Z,22.51
2022-08-30T19:01:48.643Z,22.46
2022-08-30T19:04:50.681Z,22.38
2022-08-30T19:07:54.965Z,22.33
2022-08-30T19:11:01.802Z,22.30
2022-08-30T19:14:07.673Z,22.27
2022-08-30T19:17:09.401Z,22.22
2022-08-30T19:20:14.262Z,22.25
2022-08-30T19:23:17.310Z,22.08
2022-08-30T19:26:19.195Z,22.12
2022-08-30T19:29:20.686Z,22.05
2022-08-30T19:32:22.518Z,21.99
2022-08-30T19:35:24.083Z,21.89
2022-08-30T19:38:26.525Z,21.86
2022-08-30T19:41:29.462Z,21.90
2022-08-30T19:44:31.130Z,21.84
2022-08-30T19:47:32.774Z,21.78
2022-08-30T19:50:34.326Z,21.66
2022-08-30T19:53:38.126Z,21.53
2022-08-30T19:56:39.637Z,21.49
2022-08-30T19:59:41.134Z,21.51
2022-08-30T20:02:42.862Z,21.44
2022-08-30T20:05:45.669Z,21.34
2022-08-30T20:08:47.407Z,21.27
2022-08-30T20:11:49.550Z,21.26
2022-08-30T20:14:58.784Z,21.22
2022-08-30T20:18:06.101Z,21.15
2022-08-30T20:21:15.082Z,21.05
2022-08-30T20:24:16.794Z,21.02
2022-08-30T20:27:18.292Z,20.94
2022-08-30T20:30:20.831Z,20.87
2022-08-30T20:33:24.506Z,20.77
2022-08-30T20:36:26.438Z,20.73
2022-08-30T20:39:27.929Z,20.71
2022-08-30T20:42:29.590Z,20.68
2022-08-30T20:45:32.674Z,20.64
2022-08-30T20:48:34.970Z,20.60
2022-08-30T20:51:36.453Z,20.51
2022-08-30T20:54:40.922Z,20.46
2022-08-30T20:57:42.463Z,20.50
2022-08-30T21:00:46.038Z,20.42
2022-08-30T21:03:47.815Z,20.31
2022-08-30T21:06:49.323Z,20.28
2022-08-30T21:09:53.931Z,20.30
2022-08-30T21:12:55.353Z,20.23
2022-08-30T21:16:00.265Z,20.15
2022-08-30T21:19:03.291Z,20.03
2022-08-30T21:22:05.401Z,20.00
2022-08-30T21:25:07.133Z,19.94
2022-08-30T21:28:09.035Z,19.87
2022-08-30T21:31:14.503Z,19.91
2022-08-30T21:34:17.439Z,19.98
2022-08-30T21:37:19.147Z,19.98
2022-08-30T21:40:21.300Z,19.89
2022-08-30T21:43:22.805Z,19.86
2022-08-30T21:46:25.821Z,19.87
2022-08-30T21:49:27.731Z,19.85
2022-08-30T21:52:29.226Z,19.90
2022-08-30T21:55:31.351Z,19.85
2022-08-30T21:58:32.897Z,19.85
2022-08-30T22:01:36.127Z,19.87
2022-08-30T22:04:41.355Z,19.85
2022-08-30T22:07:43.243Z,19.85
2022-08-30T22:10:44.798Z,19.83
2022-08-30T22:13:48.275Z,19.84
2022-08-30T22:16:50.165Z,19.85
2022-08-30T22:19:52.518Z,19.87
2022-08-30T22:22:53.967Z,19.89
2022-08-30T22:25:55.875Z,19.91
2022-08-30T22:28:57.867Z,19.97
2022-08-30T22:31:59.604Z,20.01
2022-08-30T22:35:01.157Z,20.00
2022-08-30T22:38:02.746Z,19.98
2022-08-30T22:41:09.464Z,19.90
2022-08-30T22:44:11.758Z,19.92
2022-08-30T22:47:13.222Z,19.90
2022-08-30T22:50:14.829Z,19.88
2022-08-30T22:53:16.357Z,19.94
2022-08-30T22:56:20.810Z,19.99
2022-08-30T22:59:30.415Z,20.02
2022-08-30T23:02:34.670Z,20.03
2022-08-30T23:05:37.007Z,19.99
2022-08-30T23:08:38.563Z,19.94
2022-08-30T23:11:40.088Z,19.89
2022-08-30T23:14:41.530Z,19.90
2022-08-30T23:17:43.030Z,19.80
2022-08-30T23:20:45.371Z,19.69
2022-08-30T23:24:05.617Z,19.73
2022-08-30T23:27:26.004Z,19.67
2022-08-30T23:30:46.395Z,19.52
2022-08-30T23:34:06.216Z,19.43
2022-08-30T23:37:30.105Z,19.21
2022-08-30T23:40:49.864Z,18.95
2022-08-30T23:44:10.239Z,19.06
2022-08-30T23:47:32.597Z,19.04
2022-08-30T23:50:52.582Z,19.11
2022-08-30T23:54:12.548Z,18.84
2022-08-30T23:57:32.337Z,18.58
